createdAt,value
2022-08-02T00:01:08.672Z,16.30
2022-08-02T00:03:37.262Z,16.30
2022-08-02T00:06:07.689Z,16.30
2022-08-02T00:08:36.277Z,16.30
2022-08-02T00:11:04.839Z,16.20
2022-08-02T00:13:33.610Z,16.20
2022-08-02T00:16:02.177Z,16.10
2022-08-02T00:18:30.740Z,16.20
2022-08-02T00:20:59.363Z,16.30
2022-08-02T00:23:29.321Z,16.20
2022-08-02T00:25:58.096Z,16.30
2022-08-02T00:28:28.372Z,16.30
2022-08-02T00:30:57.902Z,16.30
2022-08-02T00:34:26.621Z,16.40
2022-08-02T00:36:15.818Z,16.40
2022-08-02T00:38:46.424Z,16.40
2022-08-02T00:41:18.353Z,16.40
2022-08-02T00:44:02.131Z,16.40
2022-08-02T00:46:30.718Z,16.30
2022-08-02T00:48:59.316Z,16.20
2022-08-02T00:51:27.890Z,16.20
2022-08-02T00:53:57.845Z,16.20
2022-08-02T00:56:26.368Z,16.20
2022-08-02T00:58:54.968Z,16.20
2022-08-02T01:01:38.527Z,16.20
2022-08-02T01:04:26.751Z,16.20
2022-08-02T01:07:00.411Z,16.20
2022-08-02T01:09:30.354Z,16.30
2022-08-02T01:12:02.645Z,16.40
2022-08-02T01:14:31.961Z,16.50
2022-08-02T01:17:07.962Z,16.50
2022-08-02T01:19:44.984Z,16.60
2022-08-02T01:22:59.581Z,16.70
2022-08-02T01:25:50.643Z,16.70
2022-08-02T01:28:38.988Z,16.60
2022-08-02T01:31:17.835Z,16.70
2022-08-02T01:34:17.195Z,16.60
2022-08-02T01:36:55.268Z,16.50
2022-08-02T01:39:32.384Z,16.40
2022-08-02T01:42:03.088Z,16.40
2022-08-02T01:45:01.505Z,16.40
2022-08-02T01:47:36.605Z,16.40
2022-08-02T01:50:09.718Z,16.30
2022-08-02T01:52:53.868Z,16.30
2022-08-02T01:55:35.259Z,16.30
2022-08-02T01:58:21.346Z,16.30
2022-08-02T02:00:52.661Z,16.20
2022-08-02T02:03:24.704Z,16.20
2022-08-02T02:05:58.639Z,16.10
2022-08-02T02:08:35.348Z,16.10
2022-08-02T02:12:09.801Z,16.00
2022-08-02T02:14:20.088Z,15.90
2022-08-02T02:16:50.762Z,15.80
2022-08-02T02:19:23.381Z,15.70
2022-08-02T02:21:52.097Z,15.70
2022-08-02T02:24:20.848Z,15.70
2022-08-02T02:26:53.117Z,15.70
2022-08-02T02:29:29.000Z,15.70
2022-08-02T02:32:01.959Z,15.70
2022-08-02T02:34:34.522Z,15.60
2022-08-02T02:37:07.054Z,15.60
2022-08-02T02:39:38.466Z,15.50
2022-08-02T02:42:12.335Z,15.50
2022-08-02T02:44:42.171Z,15.50
2022-08-02T02:47:15.401Z,15.50
2022-08-02T02:49:47.425Z,15.40
2022-08-02T02:52:18.674Z,15.40
2022-08-02T02:55:04.303Z,15.40
2022-08-02T02:57:34.291Z,15.30
2022-08-02T03:00:04.008Z,15.30
2022-08-02T03:02:35.811Z,15.30
2022-08-02T03:05:05.732Z,15.40
2022-08-02T03:07:35.882Z,15.40
2022-08-02T03:10:07.160Z,15.40
2022-08-02T03:12:37.048Z,15.60
2022-08-02T03:15:09.403Z,15.60
2022-08-02T03:17:45.807Z,15.60
2022-08-02T03:20:37.431Z,15.60
2022-08-02T03:23:06.591Z,15.50
2022-08-02T03:25:36.098Z,15.50
2022-08-02T03:28:08.655Z,15.50
2022-08-02T03:30:43.154Z,15.50
2022-08-02T03:33:13.383Z,15.50
2022-08-02T03:35:45.114Z,15.50
2022-08-02T03:38:39.144Z,15.50
2022-08-02T03:41:11.116Z,15.30
2022-08-02T03:43:41.154Z,15.50
2022-08-02T03:46:10.850Z,15.50
2022-08-02T03:48:41.555Z,15.50
2022-08-02T03:51:10.626Z,15.60
2022-08-02T03:53:40.203Z,15.70
2022-08-02T03:56:09.080Z,15.80
2022-08-02T03:58:37.606Z,15.90
2022-08-02T04:01:06.317Z,16.10
2022-08-02T04:03:35.153Z,16.20
2022-08-02T04:06:05.212Z,16.20
2022-08-02T04:08:38.070Z,16.40
2022-08-02T04:11:25.502Z,16.40
2022-08-02T04:13:57.005Z,16.50
2022-08-02T04:16:35.607Z,16.50
2022-08-02T04:19:08.892Z,16.60
2022-08-02T04:21:51.265Z,16.70
2022-08-02T04:24:26.609Z,16.70
2022-08-02T04:27:06.825Z,16.80
2022-08-02T04:29:49.009Z,16.80
2022-08-02T04:32:18.799Z,16.90
2022-08-02T04:35:17.565Z,16.90
2022-08-02T04:38:08.565Z,17.00
2022-08-02T04:40:28.732Z,17.10
2022-08-02T04:42:57.508Z,17.10
2022-08-02T04:45:28.191Z,17.10
2022-08-02T04:48:04.637Z,17.10
2022-08-02T04:50:34.146Z,17.20
2022-08-02T04:53:04.363Z,17.30
2022-08-02T04:55:32.992Z,17.30
2022-08-02T04:58:03.971Z,17.50
2022-08-02T05:00:38.493Z,17.60
2022-08-02T05:03:07.282Z,17.70
2022-08-02T05:05:35.909Z,17.80
2022-08-02T05:08:06.286Z,17.90
2022-08-02T05:10:34.785Z,18.10
2022-08-02T05:13:07.230Z,18.20
2022-08-02T05:15:36.230Z,18.40
2022-08-02T05:18:04.987Z,18.60
2022-08-02T05:20:33.584Z,18.80
2022-08-02T05:23:03.609Z,19.00
2022-08-02T05:25:33.652Z,19.20
2022-08-02T05:28:02.225Z,19.40
2022-08-02T05:30:30.964Z,19.70
2022-08-02T05:32:59.512Z,19.80
2022-08-02T05:35:28.089Z,20.10
2022-08-02T05:37:56.684Z,20.20
2022-08-02T05:40:26.255Z,20.50
2022-08-02T05:42:56.610Z,20.60
2022-08-02T05:45:25.746Z,20.80
2022-08-02T05:47:54.614Z,20.90
2022-08-02T05:50:24.479Z,21.10
2022-08-02T05:53:04.503Z,21.30
2022-08-02T05:55:38.881Z,21.30
2022-08-02T05:58:27.152Z,21.50
2022-08-02T06:01:01.059Z,21.70
2022-08-02T06:03:40.441Z,21.80
2022-08-02T06:06:15.198Z,21.90
2022-08-02T06:08:47.971Z,22.10
2022-08-02T06:11:22.266Z,22.10
2022-08-02T06:13:56.510Z,22.30
2022-08-02T06:16:32.602Z,22.40
2022-08-02T06:19:02.550Z,22.40
2022-08-02T06:22:32.651Z,22.60
2022-08-02T06:24:21.318Z,22.60
2022-08-02T06:26:55.090Z,22.70
2022-08-02T06:29:26.790Z,22.80
2022-08-02T06:31:55.758Z,22.80
2022-08-02T06:34:24.614Z,22.90
2022-08-02T06:37:08.713Z,23.00
2022-08-02T06:39:46.610Z,23.00
2022-08-02T06:42:25.627Z,23.10
2022-08-02T06:44:58.565Z,23.20
2022-08-02T06:47:27.867Z,23.40
2022-08-02T06:49:58.365Z,23.40
2022-08-02T06:52:30.946Z,23.50
2022-08-02T06:55:03.315Z,23.50
2022-08-02T06:57:32.877Z,23.60
2022-08-02T07:00:04.993Z,23.70
2022-08-02T07:02:34.337Z,23.80
2022-08-02T07:05:05.332Z,23.90
2022-08-02T07:07:34.030Z,24.00
2022-08-02T07:10:03.001Z,24.10
2022-08-02T07:12:33.757Z,24.20
2022-08-02T07:15:07.407Z,24.20
2022-08-02T07:17:36.673Z,24.20
2022-08-02T07:20:07.449Z,24.20
2022-08-02T07:22:36.444Z,24.30
2022-08-02T07:25:07.836Z,24.30
2022-08-02T07:27:36.604Z,24.50
2022-08-02T07:30:09.102Z,24.60
2022-08-02T07:32:38.139Z,24.70
2022-08-02T07:35:08.504Z,24.80
2022-08-02T07:37:55.307Z,24.80
2022-08-02T07:40:27.620Z,24.80
2022-08-02T07:43:03.520Z,25.10
2022-08-02T07:45:35.726Z,25.20
2022-08-02T07:48:06.179Z,25.40
2022-08-02T07:50:35.129Z,25.60
2022-08-02T07:53:03.914Z,25.70
2022-08-02T07:55:39.762Z,25.80
2022-08-02T07:58:13.031Z,25.90
2022-08-02T08:00:46.226Z,26.10
2022-08-02T08:03:15.336Z,26.20
2022-08-02T08:05:44.027Z,26.30
2022-08-02T08:08:17.291Z,26.40
2022-08-02T08:10:50.636Z,26.40
2022-08-02T08:13:19.160Z,26.50
2022-08-02T08:15:52.055Z,26.60
2022-08-02T08:18:21.831Z,26.70
2022-08-02T08:20:50.510Z,26.70
2022-08-02T08:23:19.090Z,26.70
2022-08-02T08:25:48.409Z,26.60
2022-08-02T08:28:17.014Z,26.70
2022-08-02T08:30:47.424Z,26.80
2022-08-02T08:33:17.542Z,26.90
2022-08-02T08:35:46.376Z,27.10
2022-08-02T08:38:15.740Z,27.20
2022-08-02T08:40:44.906Z,27.30
2022-08-02T08:43:15.232Z,27.40
2022-08-02T08:45:45.922Z,27.50
2022-08-02T08:48:30.372Z,27.60
2022-08-02T08:51:08.226Z,27.60
2022-08-02T08:53:43.506Z,27.60
2022-08-02T08:56:16.400Z,27.70
2022-08-02T08:58:47.679Z,27.70
2022-08-02T09:01:17.734Z,27.70
2022-08-02T09:03:48.000Z,27.80
2022-08-02T09:06:16.630Z,27.60
2022-08-02T09:08:45.662Z,27.60
2022-08-02T09:11:17.294Z,27.60
2022-08-02T09:13:55.053Z,27.70
2022-08-02T09:16:34.181Z,27.70
2022-08-02T09:19:20.234Z,28.00
2022-08-02T09:21:51.199Z,28.20
2022-08-02T09:24:22.087Z,28.20
2022-08-02T09:26:52.679Z,28.30
2022-08-02T09:29:25.157Z,28.40
2022-08-02T09:32:06.480Z,28.50
2022-08-02T09:34:49.650Z,28.40
2022-08-02T09:37:29.560Z,28.30
2022-08-02T09:40:00.699Z,28.30
2022-08-02T09:42:31.329Z,28.40
2022-08-02T09:45:02.765Z,28.40
2022-08-02T09:47:33.519Z,28.50
2022-08-02T09:50:14.618Z,28.60
2022-08-02T09:52:44.993Z,28.70
2022-08-02T09:55:14.334Z,28.60
2022-08-02T09:57:43.508Z,28.50
2022-08-02T10:00:36.971Z,28.30
2022-08-02T10:03:21.752Z,28.20
2022-08-02T10:05:56.307Z,28.10
2022-08-02T10:08:32.731Z,28.10
2022-08-02T10:11:02.657Z,27.90
2022-08-02T10:13:34.444Z,27.90
2022-08-02T10:16:04.269Z,28.10
2022-08-02T10:18:40.018Z,28.40
2022-08-02T10:21:16.284Z,28.70
2022-08-02T10:23:47.645Z,29.00
2022-08-02T10:26:19.049Z,29.20
2022-08-02T10:28:51.599Z,29.30
2022-08-02T10:31:28.489Z,29.30
2022-08-02T10:34:02.573Z,29.10
2022-08-02T10:36:36.523Z,28.60
2022-08-02T10:39:06.666Z,28.50
2022-08-02T10:41:56.109Z,28.80
2022-08-02T10:44:30.390Z,29.10
2022-08-02T10:47:26.739Z,29.20
2022-08-02T10:49:58.283Z,29.00
2022-08-02T10:52:30.551Z,28.70
2022-08-02T10:55:01.761Z,28.50
2022-08-02T10:57:33.494Z,28.30
2022-08-02T11:00:12.429Z,28.20
2022-08-02T11:02:52.975Z,28.20
2022-08-02T11:05:42.971Z,28.40
2022-08-02T11:08:25.069Z,28.70
2022-08-02T11:11:01.254Z,28.70
2022-08-02T11:13:30.434Z,28.70
2022-08-02T11:16:10.698Z,28.90
2022-08-02T11:19:06.846Z,28.90
2022-08-02T11:21:37.989Z,28.90
2022-08-02T11:24:33.417Z,28.80
2022-08-02T11:27:03.954Z,28.60
2022-08-02T11:29:39.326Z,28.70
2022-08-02T11:32:10.085Z,29.00
2022-08-02T11:34:41.157Z,29.20
2022-08-02T11:37:10.340Z,29.30
2022-08-02T11:39:40.354Z,29.50
2022-08-02T11:42:09.514Z,29.80
2022-08-02T11:44:43.384Z,30.00
2022-08-02T11:47:12.630Z,30.10
2022-08-02T11:49:41.272Z,30.20
2022-08-02T11:52:12.099Z,30.30
2022-08-02T11:54:43.915Z,30.50
2022-08-02T11:57:20.183Z,30.50
2022-08-02T11:59:51.877Z,30.40
2022-08-02T12:02:22.822Z,30.10
2022-08-02T12:04:58.515Z,29.90
2022-08-02T12:07:34.576Z,29.60
2022-08-02T12:10:08.851Z,29.40
2022-08-02T12:12:50.128Z,29.10
2022-08-02T12:15:32.525Z,29.00
2022-08-02T12:18:19.529Z,28.90
2022-08-02T12:20:48.401Z,28.70
2022-08-02T12:23:16.927Z,28.80
2022-08-02T12:25:47.179Z,28.90
2022-08-02T12:28:18.719Z,29.20
2022-08-02T12:30:56.206Z,29.50
2022-08-02T12:33:26.406Z,29.80
2022-08-02T12:35:56.624Z,29.90
2022-08-02T12:38:25.333Z,29.80
2022-08-02T12:40:56.122Z,29.60
2022-08-02T12:43:26.247Z,29.30
2022-08-02T12:45:57.600Z,29.10
2022-08-02T12:48:38.316Z,29.30
2022-08-02T12:51:50.989Z,29.30
2022-08-02T12:54:22.976Z,29.10
2022-08-02T12:57:12.709Z,28.50
2022-08-02T12:59:44.590Z,28.30
2022-08-02T13:02:16.987Z,28.20
2022-08-02T13:04:50.021Z,28.20
2022-08-02T13:07:19.768Z,28.10
2022-08-02T13:09:50.133Z,28.10
2022-08-02T13:12:20.146Z,28.20
2022-08-02T13:14:48.687Z,28.40
2022-08-02T13:17:17.203Z,28.70
2022-08-02T13:19:45.766Z,29.00
2022-08-02T13:22:19.622Z,29.10
2022-08-02T13:24:56.448Z,29.10
2022-08-02T13:27:29.118Z,29.30
2022-08-02T13:29:58.986Z,29.60
2022-08-02T13:32:29.235Z,29.70
2022-08-02T13:34:58.968Z,29.80
2022-08-02T13:37:27.803Z,30.00
2022-08-02T13:40:20.031Z,30.10
2022-08-02T13:42:46.439Z,30.10
2022-08-02T13:45:15.086Z,30.30
2022-08-02T13:48:03.258Z,30.30
2022-08-02T13:50:34.157Z,30.20
2022-08-02T13:53:02.911Z,30.10
2022-08-02T13:55:32.067Z,30.10
2022-08-02T13:58:01.921Z,30.10
2022-08-02T14:00:35.128Z,30.10
2022-08-02T14:03:12.209Z,30.00
2022-08-02T14:05:48.276Z,29.80
2022-08-02T14:08:30.759Z,29.60
2022-08-02T14:10:59.270Z,29.30
2022-08-02T14:13:29.257Z,29.00
2022-08-02T14:16:30.368Z,28.80
2022-08-02T14:19:01.685Z,28.80
2022-08-02T14:21:46.756Z,28.70
2022-08-02T14:24:17.116Z,28.50
2022-08-02T14:26:46.101Z,28.40
2022-08-02T14:29:16.837Z,28.20
2022-08-02T14:31:45.771Z,28.10
2022-08-02T14:34:15.211Z,28.00
2022-08-02T14:36:43.817Z,27.90
2022-08-02T14:39:13.377Z,27.80
2022-08-02T14:41:59.837Z,27.60
2022-08-02T14:44:34.820Z,27.70
2022-08-02T14:47:03.394Z,27.70
2022-08-02T14:49:32.065Z,27.70
2022-08-02T14:52:00.576Z,27.70
2022-08-02T14:54:44.494Z,27.60
2022-08-02T14:57:15.792Z,27.60
2022-08-02T14:59:45.815Z,27.60
2022-08-02T15:02:14.928Z,27.60
2022-08-02T15:04:44.106Z,27.50
2022-08-02T15:07:14.388Z,27.40
2022-08-02T15:09:43.063Z,27.40
2022-08-02T15:12:13.659Z,27.40
2022-08-02T15:14:42.886Z,27.30
2022-08-02T15:17:13.317Z,27.30
2022-08-02T15:19:57.304Z,27.30
2022-08-02T15:22:29.093Z,27.30
2022-08-02T15:24:58.080Z,27.30
2022-08-02T15:27:34.320Z,27.30
2022-08-02T15:30:09.104Z,27.30
2022-08-02T15:32:39.043Z,27.30
2022-08-02T15:35:09.226Z,27.30
2022-08-02T15:37:41.340Z,27.30
2022-08-02T15:40:12.008Z,27.30
2022-08-02T15:42:56.046Z,27.30
2022-08-02T15:45:25.493Z,27.20
2022-08-02T15:47:55.816Z,27.20
2022-08-02T15:50:24.373Z,27.20
2022-08-02T15:52:52.891Z,27.20
2022-08-02T15:55:24.899Z,27.10
2022-08-02T15:57:53.355Z,27.10
2022-08-02T16:00:51.755Z,27.10
2022-08-02T16:03:21.896Z,27.10
2022-08-02T16:05:50.517Z,27.10
2022-08-02T16:08:19.075Z,27.10
2022-08-02T16:10:47.655Z,27.00
2022-08-02T16:13:33.409Z,26.90
2022-08-02T16:16:01.979Z,26.80
2022-08-02T16:18:31.897Z,26.70
2022-08-02T16:21:00.808Z,26.70
2022-08-02T16:24:01.253Z,26.60
2022-08-02T16:26:17.908Z,26.60
2022-08-02T16:28:46.506Z,26.50
2022-08-02T16:31:15.340Z,26.50
2022-08-02T16:33:45.634Z,26.50
2022-08-02T16:36:14.933Z,26.50
2022-08-02T16:38:48.039Z,26.40
2022-08-02T16:41:16.644Z,26.40
2022-08-02T16:43:45.255Z,26.40
2022-08-02T16:46:13.913Z,26.40
2022-08-02T16:48:51.087Z,26.40
2022-08-02T16:51:20.075Z,26.30
2022-08-02T16:54:00.678Z,26.40
2022-08-02T16:56:29.797Z,26.40
2022-08-02T16:58:59.607Z,26.50
2022-08-02T17:02:10.868Z,26.60
2022-08-02T17:04:18.981Z,26.50
2022-08-02T17:06:52.075Z,26.50
2022-08-02T17:10:04.329Z,26.40
2022-08-02T17:12:15.825Z,26.40
2022-08-02T17:14:58.757Z,26.30
2022-08-02T17:17:33.832Z,26.20
2022-08-02T17:20:05.633Z,26.20
2022-08-02T17:22:36.909Z,26.10
2022-08-02T17:25:07.054Z,25.90
2022-08-02T17:27:39.805Z,25.70
2022-08-02T17:30:10.837Z,25.60
2022-08-02T17:32:40.215Z,25.50
2022-08-02T17:35:16.897Z,25.40
2022-08-02T17:37:54.576Z,25.20
2022-08-02T17:40:53.864Z,25.10
2022-08-02T17:43:22.361Z,24.90
2022-08-02T17:45:59.734Z,24.70
2022-08-02T17:48:55.179Z,24.60
2022-08-02T17:52:16.080Z,24.40
2022-08-02T17:54:18.702Z,24.20
2022-08-02T17:56:47.978Z,24.00
2022-08-02T17:59:21.275Z,23.80
2022-08-02T18:04:40.847Z,23.60
2022-08-02T18:07:50.207Z,23.50
2022-08-02T18:10:24.682Z,23.30
2022-08-02T18:12:56.083Z,23.10
2022-08-02T18:15:25.843Z,22.90
2022-08-02T18:17:54.824Z,22.70
2022-08-02T18:20:25.875Z,22.50
2022-08-02T18:22:58.434Z,22.30
2022-08-02T18:25:37.037Z,22.20
2022-08-02T18:28:15.556Z,22.10
2022-08-02T18:30:44.431Z,22.00
2022-08-02T18:33:58.318Z,21.90
2022-08-02T18:36:02.172Z,21.70
2022-08-02T18:38:32.106Z,21.60
2022-08-02T18:41:02.835Z,21.50
2022-08-02T18:43:34.539Z,21.40
2022-08-02T18:46:15.828Z,21.30
2022-08-02T18:48:48.098Z,21.10
2022-08-02T18:51:18.718Z,21.00
2022-08-02T18:53:53.393Z,20.80
2022-08-02T18:59:11.277Z,20.60
2022-08-02T19:01:46.854Z,20.50
2022-08-02T19:04:46.968Z,20.40
2022-08-02T19:07:15.605Z,20.30
2022-08-02T19:09:52.833Z,20.30
2022-08-02T19:12:28.128Z,20.30
2022-08-02T19:14:58.918Z,20.20
2022-08-02T19:17:55.243Z,20.20
2022-08-02T19:20:19.207Z,20.00
2022-08-02T19:22:50.096Z,20.00
2022-08-02T19:25:27.806Z,19.90
2022-08-02T19:27:57.154Z,19.90
2022-08-02T19:30:26.343Z,19.90
2022-08-02T19:32:59.261Z,19.90
2022-08-02T19:35:34.398Z,20.00
2022-08-02T19:38:11.758Z,19.90
2022-08-02T19:40:43.017Z,19.90
2022-08-02T19:44:26.325Z,19.80
2022-08-02T19:46:02.847Z,19.70
2022-08-02T19:48:31.420Z,19.60
2022-08-02T19:51:01.989Z,19.60
2022-08-02T19:53:46.495Z,19.50
2022-08-02T19:56:25.668Z,19.50
2022-08-02T19:58:57.925Z,19.40
2022-08-02T20:01:38.896Z,19.20
2022-08-02T20:04:13.587Z,19.20
2022-08-02T20:06:45.910Z,19.10
2022-08-02T20:09:47.239Z,19.10
2022-08-02T20:12:17.502Z,19.10
2022-08-02T20:14:51.110Z,19.00
2022-08-02T20:17:21.128Z,18.90
2022-08-02T20:19:49.985Z,18.80
2022-08-02T20:22:20.852Z,18.80
2022-08-02T20:24:49.477Z,18.70
2022-08-02T20:27:47.416Z,18.70
2022-08-02T20:30:20.483Z,18.60
2022-08-02T20:32:58.876Z,18.70
2022-08-02T20:35:43.797Z,18.70
2022-08-02T20:38:12.345Z,18.70
2022-08-02T20:40:40.858Z,18.70
2022-08-02T20:43:13.792Z,18.60
2022-08-02T20:45:42.239Z,18.60
2022-08-02T20:48:10.809Z,18.60
2022-08-02T20:50:52.170Z,18.50
2022-08-02T20:53:26.029Z,18.50
2022-08-02T20:55:59.002Z,18.50
2022-08-02T20:58:29.468Z,18.50
2022-08-02T21:01:00.194Z,18.50
2022-08-02T21:03:38.739Z,18.60
2022-08-02T21:06:09.490Z,18.60
2022-08-02T21:08:38.395Z,18.60
2022-08-02T21:11:09.360Z,18.60
2022-08-02T21:14:07.914Z,18.60
2022-08-02T21:16:37.692Z,18.60
2022-08-02T21:19:09.591Z,18.50
2022-08-02T21:21:38.692Z,18.50
2022-08-02T21:24:07.815Z,18.40
2022-08-02T21:26:40.943Z,18.40
2022-08-02T21:29:13.654Z,18.40
2022-08-02T21:34:27.185Z,18.30
2022-08-02T21:36:56.213Z,18.30
2022-08-02T21:39:25.347Z,18.30
2022-08-02T21:41:54.498Z,18.30
2022-08-02T21:44:24.969Z,18.30
2022-08-02T21:46:56.773Z,18.30
2022-08-02T21:50:08.500Z,18.30
2022-08-02T21:52:42.340Z,18.30
2022-08-02T21:55:24.307Z,18.40
2022-08-02T21:58:10.006Z,18.40
2022-08-02T22:00:40.001Z,18.40
2022-08-02T22:03:23.136Z,18.40
2022-08-02T22:05:52.335Z,18.40
2022-08-02T22:08:22.351Z,18.40
2022-08-02T22:11:16.957Z,18.40
2022-08-02T22:13:47.188Z,18.40
2022-08-02T22:16:18.394Z,18.50
2022-08-02T22:19:06.592Z,18.50
2022-08-02T22:21:55.102Z,18.50
2022-08-02T22:24:30.254Z,18.50
2022-08-02T22:26:59.326Z,18.50
2022-08-02T22:29:27.900Z,18.50
2022-08-02T22:31:57.875Z,18.40
2022-08-02T22:34:37.065Z,18.40
2022-08-02T22:38:16.502Z,18.30
2022-08-02T22:40:09.674Z,18.20
2022-08-02T22:42:40.187Z,18.20
2022-08-02T22:45:10.338Z,18.10
2022-08-02T22:47:51.243Z,18.10
2022-08-02T22:50:20.532Z,18.10
2022-08-02T22:52:50.356Z,18.00
2022-08-02T22:55:19.094Z,18.00
2022-08-02T22:57:56.530Z,17.90
2022-08-02T22:58:42.978Z,23.70
2022-08-02T22:58:57.436Z,20.80
2022-08-02T23:00:26.694Z,17.90
2022-08-02T23:02:56.636Z,17.90
2022-08-02T23:05:25.216Z,17.90
2022-08-02T23:07:53.745Z,17.90
2022-08-02T23:10:22.562Z,17.90
2022-08-02T23:12:51.132Z,17.90
2022-08-02T23:15:19.652Z,17.90
2022-08-02T23:18:05.682Z,17.90
2022-08-02T23:20:35.992Z,17.90
2022-08-02T23:23:29.041Z,17.90
2022-08-02T23:25:57.548Z,17.90
2022-08-02T23:28:26.059Z,17.90
2022-08-02T23:30:54.622Z,17.90
2022-08-02T23:33:23.093Z,17.90
2022-08-02T23:35:53.058Z,17.80
2022-08-02T23:38:51.105Z,17.80
2022-08-02T23:41:19.659Z,17.80
2022-08-02T23:44:11.380Z,17.80
2022-08-02T23:51:05.775Z,17.80
2022-08-02T23:53:34.612Z,17.70
2022-08-02T23:56:06.866Z,17.60
2022-08-02T23:58:53.805Z,17.60
